sensor_id;sensor_type;location;lat;lon;timestamp;P1;durP1;ratioP1;P2;durP2;ratioP2
14342;SDS011;7255;53.596;9.960;2022-12-24T00:01:29;33.23;;;16.43;;
14342;SDS011;7255;53.596;9.960;2022-12-24T00:03:56;33.67;;;16.30;;
14342;SDS011;7255;53.596;9.960;2022-12-24T00:06:22;31.10;;;16.10;;
14342;SDS011;7255;53.596;9.960;2022-12-24T00:08:49;39.00;;;16.63;;
14342;SDS011;7255;53.596;9.960;2022-12-24T00:11:17;33.77;;;15.47;;
14342;SDS011;7255;53.596;9.960;2022-12-24T00:13:45;36.07;;;14.60;;
14342;SDS011;7255;53.596;9.960;2022-12-24T00:16:11;33.40;;;15.63;;
14342;SDS011;7255;53.596;9.960;2022-12-24T00:18:37;31.23;;;15.50;;
14342;SDS011;7255;53.596;9.960;2022-12-24T00:21:04;35.57;;;16.53;;
14342;SDS011;7255;53.596;9.960;2022-12-24T00:23:31;32.70;;;16.27;;
14342;SDS011;7255;53.596;9.960;2022-12-24T00:25:57;32.33;;;16.17;;
14342;SDS011;7255;53.596;9.960;2022-12-24T00:28:24;39.33;;;17.03;;
14342;SDS011;7255;53.596;9.960;2022-12-24T00:30:51;34.67;;;16.10;;
14342;SDS011;7255;53.596;9.960;2022-12-24T00:33:18;35.70;;;16.10;;
14342;SDS011;7255;53.596;9.960;2022-12-24T00:35:45;30.20;;;15.20;;
14342;SDS011;7255;53.596;9.960;2022-12-24T00:38:15;35.43;;;16.33;;
14342;SDS011;7255;53.596;9.960;2022-12-24T00:40:42;35.27;;;14.93;;
14342;SDS011;7255;53.596;9.960;2022-12-24T00:43:08;35.43;;;15.40;;
14342;SDS011;7255;53.596;9.960;2022-12-24T00:45:34;31.33;;;14.23;;
14342;SDS011;7255;53.596;9.960;2022-12-24T00:48:02;40.20;;;16.30;;
14342;SDS011;7255;53.596;9.960;2022-12-24T00:50:28;31.73;;;15.30;;
14342;SDS011;7255;53.596;9.960;2022-12-24T00:52:54;37.17;;;15.03;;
14342;SDS011;7255;53.596;9.960;2022-12-24T00:55:21;34.20;;;14.83;;
14342;SDS011;7255;53.596;9.960;2022-12-24T00:57:47;35.83;;;14.77;;
14342;SDS011;7255;53.596;9.960;2022-12-24T01:00:13;39.70;;;16.60;;
14342;SDS011;7255;53.596;9.960;2022-12-24T01:02:41;41.63;;;16.60;;
14342;SDS011;7255;53.596;9.960;2022-12-24T01:05:10;38.53;;;15.70;;
14342;SDS011;7255;53.596;9.960;2022-12-24T01:07:35;37.50;;;16.17;;
14342;SDS011;7255;53.596;9.960;2022-12-24T01:10:02;35.67;;;15.83;;
14342;SDS011;7255;53.596;9.960;2022-12-24T01:12:29;44.13;;;16.07;;
14342;SDS011;7255;53.596;9.960;2022-12-24T01:14:56;38.63;;;15.70;;
14342;SDS011;7255;53.596;9.960;2022-12-24T01:17:22;39.73;;;16.30;;
14342;SDS011;7255;53.596;9.960;2022-12-24T01:19:48;37.70;;;16.20;;
14342;SDS011;7255;53.596;9.960;2022-12-24T01:22:16;35.47;;;15.20;;
14342;SDS011;7255;53.596;9.960;2022-12-24T01:24:42;37.13;;;15.53;;
14342;SDS011;7255;53.596;9.960;2022-12-24T01:27:09;37.23;;;15.57;;
14342;SDS011;7255;53.596;9.960;2022-12-24T01:29:35;41.47;;;15.73;;
14342;SDS011;7255;53.596;9.960;2022-12-24T01:32:02;41.77;;;15.97;;
14342;SDS011;7255;53.596;9.960;2022-12-24T01:34:28;37.00;;;14.43;;
14342;SDS011;7255;53.596;9.960;2022-12-24T01:36:55;42.80;;;16.73;;
14342;SDS011;7255;53.596;9.960;2022-12-24T01:39:22;39.63;;;15.90;;
14342;SDS011;7255;53.596;9.960;2022-12-24T01:41:49;35.23;;;15.97;;
14342;SDS011;7255;53.596;9.960;2022-12-24T01:44:34;40.63;;;15.33;;
14342;SDS011;7255;53.596;9.960;2022-12-24T01:47:05;37.27;;;15.73;;
14342;SDS011;7255;53.596;9.960;2022-12-24T01:49:36;36.80;;;15.23;;
14342;SDS011;7255;53.596;9.960;2022-12-24T01:52:07;32.73;;;15.67;;
14342;SDS011;7255;53.596;9.960;2022-12-24T01:54:37;36.30;;;15.13;;
14342;SDS011;7255;53.596;9.960;2022-12-24T01:57:08;44.47;;;16.03;;
14342;SDS011;7255;53.596;9.960;2022-12-24T01:59:42;36.13;;;15.60;;
14342;SDS011;7255;53.596;9.960;2022-12-24T02:02:11;37.30;;;15.27;;
14342;SDS011;7255;53.596;9.960;2022-12-24T02:04:39;40.40;;;14.40;;
14342;SDS011;7255;53.596;9.960;2022-12-24T02:07:09;32.73;;;14.57;;
14342;SDS011;7255;53.596;9.960;2022-12-24T02:09:37;41.17;;;15.83;;
14342;SDS011;7255;53.596;9.960;2022-12-24T02:12:04;37.07;;;15.60;;
14342;SDS011;7255;53.596;9.960;2022-12-24T02:14:32;34.07;;;14.43;;
14342;SDS011;7255;53.596;9.960;2022-12-24T02:17:01;33.93;;;14.47;;
14342;SDS011;7255;53.596;9.960;2022-12-24T02:19:47;34.13;;;14.70;;
14342;SDS011;7255;53.596;9.960;2022-12-24T02:22:40;36.43;;;15.07;;
14342;SDS011;7255;53.596;9.960;2022-12-24T02:25:42;35.60;;;14.33;;
14342;SDS011;7255;53.596;9.960;2022-12-24T02:28:29;37.17;;;15.33;;
14342;SDS011;7255;53.596;9.960;2022-12-24T02:31:10;34.10;;;15.20;;
14342;SDS011;7255;53.596;9.960;2022-12-24T02:33:44;36.20;;;16.03;;
14342;SDS011;7255;53.596;9.960;2022-12-24T02:36:16;33.93;;;15.17;;
14342;SDS011;7255;53.596;9.960;2022-12-24T02:38:48;33.37;;;13.70;;
14342;SDS011;7255;53.596;9.960;2022-12-24T02:41:22;34.47;;;13.50;;
14342;SDS011;7255;53.596;9.960;2022-12-24T02:43:50;34.53;;;15.30;;
14342;SDS011;7255;53.596;9.960;2022-12-24T02:46:22;35.83;;;13.93;;
14342;SDS011;7255;53.596;9.960;2022-12-24T02:48:52;34.83;;;14.37;;
14342;SDS011;7255;53.596;9.960;2022-12-24T02:51:21;33.20;;;14.40;;
14342;SDS011;7255;53.596;9.960;2022-12-24T02:53:48;31.63;;;14.47;;
14342;SDS011;7255;53.596;9.960;2022-12-24T02:56:29;34.90;;;14.53;;
14342;SDS011;7255;53.596;9.960;2022-12-24T03:01:59;34.97;;;14.20;;
14342;SDS011;7255;53.596;9.960;2022-12-24T03:04:36;32.57;;;13.77;;
14342;SDS011;7255;53.596;9.960;2022-12-24T03:07:14;32.83;;;14.43;;
14342;SDS011;7255;53.596;9.960;2022-12-24T03:09:49;35.40;;;14.23;;
14342;SDS011;7255;53.596;9.960;2022-12-24T03:12:23;32.50;;;14.10;;
14342;SDS011;7255;53.596;9.960;2022-12-24T03:14:53;32.93;;;13.90;;
14342;SDS011;7255;53.596;9.960;2022-12-24T03:17:21;41.17;;;13.60;;
14342;SDS011;7255;53.596;9.960;2022-12-24T03:19:47;29.27;;;13.03;;
14342;SDS011;7255;53.596;9.960;2022-12-24T03:22:13;29.70;;;13.77;;
14342;SDS011;7255;53.596;9.960;2022-12-24T03:24:41;31.50;;;14.82;;
14342;SDS011;7255;53.596;9.960;2022-12-24T03:27:08;29.87;;;12.63;;
14342;SDS011;7255;53.596;9.960;2022-12-24T03:29:37;31.80;;;13.87;;
14342;SDS011;7255;53.596;9.960;2022-12-24T03:32:03;29.93;;;14.10;;
14342;SDS011;7255;53.596;9.960;2022-12-24T03:34:31;37.83;;;13.67;;
14342;SDS011;7255;53.596;9.960;2022-12-24T03:36:57;31.00;;;12.93;;
14342;SDS011;7255;53.596;9.960;2022-12-24T03:39:24;30.47;;;13.13;;
14342;SDS011;7255;53.596;9.960;2022-12-24T03:41:50;31.20;;;13.40;;
14342;SDS011;7255;53.596;9.960;2022-12-24T03:44:16;32.10;;;13.33;;
14342;SDS011;7255;53.596;9.960;2022-12-24T03:46:43;33.70;;;13.73;;
14342;SDS011;7255;53.596;9.960;2022-12-24T03:49:09;31.53;;;13.27;;
14342;SDS011;7255;53.596;9.960;2022-12-24T03:51:36;34.00;;;12.37;;
14342;SDS011;7255;53.596;9.960;2022-12-24T03:54:03;31.73;;;13.43;;
14342;SDS011;7255;53.596;9.960;2022-12-24T03:56:29;29.37;;;13.33;;
14342;SDS011;7255;53.596;9.960;2022-12-24T03:58:55;29.57;;;13.40;;
14342;SDS011;7255;53.596;9.960;2022-12-24T04:01:22;32.37;;;13.17;;
14342;SDS011;7255;53.596;9.960;2022-12-24T04:03:48;29.13;;;12.60;;
14342;SDS011;7255;53.596;9.960;2022-12-24T04:06:15;31.97;;;12.90;;
14342;SDS011;7255;53.596;9.960;2022-12-24T04:08:44;27.97;;;11.80;;
14342;SDS011;7255;53.596;9.960;2022-12-24T04:11:11;27.47;;;12.60;;
14342;SDS011;7255;53.596;9.960;2022-12-24T04:13:39;26.17;;;12.37;;
14342;SDS011;7255;53.596;9.960;2022-12-24T04:16:06;22.23;;;11.40;;
14342;SDS011;7255;53.596;9.960;2022-12-24T04:18:34;32.63;;;11.87;;
14342;SDS011;7255;53.596;9.960;2022-12-24T04:21:01;28.97;;;12.60;;
14342;SDS011;7255;53.596;9.960;2022-12-24T04:23:29;24.17;;;11.70;;
14342;SDS011;7255;53.596;9.960;2022-12-24T04:25:58;24.77;;;10.77;;
14342;SDS011;7255;53.596;9.960;2022-12-24T04:28:25;26.47;;;11.63;;
14342;SDS011;7255;53.596;9.960;2022-12-24T04:30:51;29.13;;;12.03;;
14342;SDS011;7255;53.596;9.960;2022-12-24T04:33:23;26.47;;;11.50;;
14342;SDS011;7255;53.596;9.960;2022-12-24T04:35:49;25.53;;;11.97;;
14342;SDS011;7255;53.596;9.960;2022-12-24T04:38:16;31.43;;;10.83;;
14342;SDS011;7255;53.596;9.960;2022-12-24T04:40:42;26.07;;;12.03;;
14342;SDS011;7255;53.596;9.960;2022-12-24T04:43:10;23.10;;;11.77;;
14342;SDS011;7255;53.596;9.960;2022-12-24T04:45:36;28.23;;;11.67;;
14342;SDS011;7255;53.596;9.960;2022-12-24T04:48:03;25.17;;;11.70;;
14342;SDS011;7255;53.596;9.960;2022-12-24T04:50:29;31.53;;;12.27;;
14342;SDS011;7255;53.596;9.960;2022-12-24T04:52:55;22.43;;;10.77;;
14342;SDS011;7255;53.596;9.960;2022-12-24T04:55:22;22.20;;;10.53;;
14342;SDS011;7255;53.596;9.960;2022-12-24T04:57:48;31.47;;;12.20;;
14342;SDS011;7255;53.596;9.960;2022-12-24T05:00:16;23.90;;;11.00;;
14342;SDS011;7255;53.596;9.960;2022-12-24T05:02:42;30.20;;;11.80;;
14342;SDS011;7255;53.596;9.960;2022-12-24T05:05:08;24.87;;;11.20;;
14342;SDS011;7255;53.596;9.960;2022-12-24T05:07:35;26.03;;;11.57;;
14342;SDS011;7255;53.596;9.960;2022-12-24T05:10:01;23.27;;;11.13;;
14342;SDS011;7255;53.596;9.960;2022-12-24T05:12:27;24.83;;;10.57;;
14342;SDS011;7255;53.596;9.960;2022-12-24T05:14:53;25.93;;;10.60;;
14342;SDS011;7255;53.596;9.960;2022-12-24T05:17:21;24.17;;;11.40;;
14342;SDS011;7255;53.596;9.960;2022-12-24T05:19:47;24.53;;;11.80;;
14342;SDS011;7255;53.596;9.960;2022-12-24T05:22:14;29.30;;;10.60;;
14342;SDS011;7255;53.596;9.960;2022-12-24T05:24:58;27.90;;;12.17;;
14342;SDS011;7255;53.596;9.960;2022-12-24T05:27:42;20.37;;;11.20;;
14342;SDS011;7255;53.596;9.960;2022-12-24T05:30:08;23.90;;;10.63;;
14342;SDS011;7255;53.596;9.960;2022-12-24T05:32:36;21.23;;;11.27;;
14342;SDS011;7255;53.596;9.960;2022-12-24T05:35:03;27.33;;;10.87;;
14342;SDS011;7255;53.596;9.960;2022-12-24T05:37:30;26.03;;;11.63;;
14342;SDS011;7255;53.596;9.960;2022-12-24T05:39:56;22.93;;;12.03;;
14342;SDS011;7255;53.596;9.960;2022-12-24T05:42:22;33.73;;;11.63;;
14342;SDS011;7255;53.596;9.960;2022-12-24T05:44:48;25.77;;;11.97;;
14342;SDS011;7255;53.596;9.960;2022-12-24T05:47:15;26.60;;;12.20;;
14342;SDS011;7255;53.596;9.960;2022-12-24T05:49:42;26.60;;;11.73;;
14342;SDS011;7255;53.596;9.960;2022-12-24T05:52:09;23.03;;;11.47;;
14342;SDS011;7255;53.596;9.960;2022-12-24T05:54:35;23.00;;;11.43;;
14342;SDS011;7255;53.596;9.960;2022-12-24T05:57:01;31.17;;;12.30;;
14342;SDS011;7255;53.596;9.960;2022-12-24T05:59:28;27.60;;;12.70;;
14342;SDS011;7255;53.596;9.960;2022-12-24T06:01:54;28.58;;;12.65;;
14342;SDS011;7255;53.596;9.960;2022-12-24T06:04:20;25.77;;;12.77;;
14342;SDS011;7255;53.596;9.960;2022-12-24T06:06:48;28.13;;;12.67;;
14342;SDS011;7255;53.596;9.960;2022-12-24T06:09:14;26.03;;;12.27;;
14342;SDS011;7255;53.596;9.960;2022-12-24T06:11:41;27.30;;;12.67;;
14342;SDS011;7255;53.596;9.960;2022-12-24T06:14:08;24.30;;;10.83;;
14342;SDS011;7255;53.596;9.960;2022-12-24T06:16:34;25.43;;;12.10;;
14342;SDS011;7255;53.596;9.960;2022-12-24T06:19:00;25.75;;;11.52;;
14342;SDS011;7255;53.596;9.960;2022-12-24T06:21:27;26.62;;;12.20;;
14342;SDS011;7255;53.596;9.960;2022-12-24T06:23:54;26.67;;;11.85;;
14342;SDS011;7255;53.596;9.960;2022-12-24T06:26:21;21.87;;;10.57;;
14342;SDS011;7255;53.596;9.960;2022-12-24T06:28:48;26.90;;;11.70;;
14342;SDS011;7255;53.596;9.960;2022-12-24T06:31:16;25.12;;;11.00;;
14342;SDS011;7255;53.596;9.960;2022-12-24T06:33:44;23.17;;;11.30;;
14342;SDS011;7255;53.596;9.960;2022-12-24T06:36:12;25.47;;;11.27;;
14342;SDS011;7255;53.596;9.960;2022-12-24T06:38:41;27.90;;;11.37;;
14342;SDS011;7255;53.596;9.960;2022-12-24T06:41:09;19.77;;;10.60;;
14342;SDS011;7255;53.596;9.960;2022-12-24T06:43:35;22.80;;;10.53;;
14342;SDS011;7255;53.596;9.960;2022-12-24T06:46:02;26.30;;;10.30;;
14342;SDS011;7255;53.596;9.960;2022-12-24T06:48:29;24.83;;;10.63;;
14342;SDS011;7255;53.596;9.960;2022-12-24T06:50:55;19.67;;;10.13;;
14342;SDS011;7255;53.596;9.960;2022-12-24T06:53:22;18.90;;;9.20;;
14342;SDS011;7255;53.596;9.960;2022-12-24T06:55:48;20.13;;;9.10;;
14342;SDS011;7255;53.596;9.960;2022-12-24T06:58:15;20.60;;;10.23;;
14342;SDS011;7255;53.596;9.960;2022-12-24T07:00:42;17.53;;;9.80;;
14342;SDS011;7255;53.596;9.960;2022-12-24T07:03:08;16.03;;;9.07;;
14342;SDS011;7255;53.596;9.960;2022-12-24T07:05:35;22.27;;;9.50;;
14342;SDS011;7255;53.596;9.960;2022-12-24T07:08:02;16.73;;;9.57;;
14342;SDS011;7255;53.596;9.960;2022-12-24T07:10:28;19.00;;;9.27;;
14342;SDS011;7255;53.596;9.960;2022-12-24T07:12:54;19.97;;;9.30;;
14342;SDS011;7255;53.596;9.960;2022-12-24T07:15:22;18.47;;;9.33;;
14342;SDS011;7255;53.596;9.960;2022-12-24T07:17:48;13.37;;;8.07;;
14342;SDS011;7255;53.596;9.960;2022-12-24T07:20:15;17.10;;;8.43;;
14342;SDS011;7255;53.596;9.960;2022-12-24T07:22:41;17.83;;;9.07;;
14342;SDS011;7255;53.596;9.960;2022-12-24T07:25:08;17.53;;;8.90;;
14342;SDS011;7255;53.596;9.960;2022-12-24T07:27:35;15.47;;;8.33;;
14342;SDS011;7255;53.596;9.960;2022-12-24T07:30:02;15.27;;;8.27;;
14342;SDS011;7255;53.596;9.960;2022-12-24T07:32:29;15.97;;;8.13;;
14342;SDS011;7255;53.596;9.960;2022-12-24T07:34:56;16.53;;;8.50;;
14342;SDS011;7255;53.596;9.960;2022-12-24T07:37:22;16.23;;;8.70;;
14342;SDS011;7255;53.596;9.960;2022-12-24T07:39:48;14.17;;;8.77;;
14342;SDS011;7255;53.596;9.960;2022-12-24T07:42:14;16.53;;;8.47;;
14342;SDS011;7255;53.596;9.960;2022-12-24T07:44:41;14.17;;;8.40;;
14342;SDS011;7255;53.596;9.960;2022-12-24T07:47:07;16.77;;;8.53;;
14342;SDS011;7255;53.596;9.960;2022-12-24T07:49:35;16.73;;;8.53;;
14342;SDS011;7255;53.596;9.960;2022-12-24T07:52:01;16.67;;;8.57;;
14342;SDS011;7255;53.596;9.960;2022-12-24T07:54:28;16.47;;;9.10;;
14342;SDS011;7255;53.596;9.960;2022-12-24T07:56:54;15.93;;;8.50;;
14342;SDS011;7255;53.596;9.960;2022-12-24T07:59:21;14.83;;;8.43;;
14342;SDS011;7255;53.596;9.960;2022-12-24T08:01:47;14.60;;;7.80;;
14342;SDS011;7255;53.596;9.960;2022-12-24T08:04:13;12.27;;;7.70;;
14342;SDS011;7255;53.596;9.960;2022-12-24T08:06:41;12.40;;;7.23;;
14342;SDS011;7255;53.596;9.960;2022-12-24T08:09:07;12.23;;;7.13;;
14342;SDS011;7255;53.596;9.960;2022-12-24T08:11:34;11.00;;;6.70;;
14342;SDS011;7255;53.596;9.960;2022-12-24T08:14:00;12.77;;;6.40;;
14342;SDS011;7255;53.596;9.960;2022-12-24T08:16:26;11.23;;;7.10;;
14342;SDS011;7255;53.596;9.960;2022-12-24T08:18:53;13.03;;;7.53;;
14342;SDS011;7255;53.596;9.960;2022-12-24T08:21:19;11.47;;;7.03;;
14342;SDS011;7255;53.596;9.960;2022-12-24T08:23:47;8.43;;;5.97;;
14342;SDS011;7255;53.596;9.960;2022-12-24T08:26:13;10.75;;;5.87;;
14342;SDS011;7255;53.596;9.960;2022-12-24T08:28:39;11.47;;;7.00;;
14342;SDS011;7255;53.596;9.960;2022-12-24T08:31:06;12.67;;;6.83;;
14342;SDS011;7255;53.596;9.960;2022-12-24T08:33:32;10.67;;;6.50;;
14342;SDS011;7255;53.596;9.960;2022-12-24T08:35:59;11.67;;;6.93;;
14342;SDS011;7255;53.596;9.960;2022-12-24T08:38:27;10.63;;;7.13;;
14342;SDS011;7255;53.596;9.960;2022-12-24T08:40:55;9.77;;;6.57;;
14342;SDS011;7255;53.596;9.960;2022-12-24T08:43:23;9.77;;;5.90;;
14342;SDS011;7255;53.596;9.960;2022-12-24T08:45:50;9.38;;;6.05;;
14342;SDS011;7255;53.596;9.960;2022-12-24T08:48:17;9.77;;;6.30;;
14342;SDS011;7255;53.596;9.960;2022-12-24T08:50:44;8.70;;;6.20;;
14342;SDS011;7255;53.596;9.960;2022-12-24T08:53:10;9.80;;;6.77;;
14342;SDS011;7255;53.596;9.960;2022-12-24T08:55:37;9.80;;;6.47;;
14342;SDS011;7255;53.596;9.960;2022-12-24T08:58:05;10.93;;;5.90;;
14342;SDS011;7255;53.596;9.960;2022-12-24T09:00:31;12.23;;;7.83;;
14342;SDS011;7255;53.596;9.960;2022-12-24T09:02:58;9.60;;;7.20;;
14342;SDS011;7255;53.596;9.960;2022-12-24T09:05:24;9.37;;;6.93;;
14342;SDS011;7255;53.596;9.960;2022-12-24T09:07:50;10.37;;;6.73;;
14342;SDS011;7255;53.596;9.960;2022-12-24T09:10:17;8.10;;;6.30;;
14342;SDS011;7255;53.596;9.960;2022-12-24T09:12:43;11.27;;;6.53;;
14342;SDS011;7255;53.596;9.960;2022-12-24T09:15:11;9.15;;;6.78;;
14342;SDS011;7255;53.596;9.960;2022-12-24T09:17:38;10.30;;;7.63;;
14342;SDS011;7255;53.596;9.960;2022-12-24T09:20:05;10.68;;;7.40;;
14342;SDS011;7255;53.596;9.960;2022-12-24T09:22:33;12.77;;;7.27;;
14342;SDS011;7255;53.596;9.960;2022-12-24T09:25:01;11.27;;;7.87;;
14342;SDS011;7255;53.596;9.960;2022-12-24T09:27:28;14.63;;;8.43;;
14342;SDS011;7255;53.596;9.960;2022-12-24T09:29:58;10.23;;;7.70;;
14342;SDS011;7255;53.596;9.960;2022-12-24T09:32:25;12.57;;;7.93;;
14342;SDS011;7255;53.596;9.960;2022-12-24T09:34:51;12.15;;;8.15;;
14342;SDS011;7255;53.596;9.960;2022-12-24T09:37:18;11.30;;;7.95;;
14342;SDS011;7255;53.596;9.960;2022-12-24T09:39:44;12.60;;;8.77;;
14342;SDS011;7255;53.596;9.960;2022-12-24T09:42:14;11.30;;;7.60;;
14342;SDS011;7255;53.596;9.960;2022-12-24T09:44:50;12.77;;;8.48;;
14342;SDS011;7255;53.596;9.960;2022-12-24T09:47:23;9.85;;;7.05;;
14342;SDS011;7255;53.596;9.960;2022-12-24T09:49:55;11.45;;;8.48;;
14342;SDS011;7255;53.596;9.960;2022-12-24T09:52:26;10.80;;;8.17;;
14342;SDS011;7255;53.596;9.960;2022-12-24T09:55:00;12.27;;;8.80;;
14342;SDS011;7255;53.596;9.960;2022-12-24T09:57:33;12.02;;;8.45;;
14342;SDS011;7255;53.596;9.960;2022-12-24T10:00:03;12.43;;;8.50;;
14342;SDS011;7255;53.596;9.960;2022-12-24T10:02:31;11.57;;;8.80;;
14342;SDS011;7255;53.596;9.960;2022-12-24T10:04:58;13.43;;;8.55;;
14342;SDS011;7255;53.596;9.960;2022-12-24T10:07:27;15.38;;;9.90;;
14342;SDS011;7255;53.596;9.960;2022-12-24T10:10:02;15.18;;;9.98;;
14342;SDS011;7255;53.596;9.960;2022-12-24T10:12:44;12.43;;;9.30;;
14342;SDS011;7255;53.596;9.960;2022-12-24T10:15:21;12.70;;;8.90;;
14342;SDS011;7255;53.596;9.960;2022-12-24T10:18:00;15.00;;;8.85;;
14342;SDS011;7255;53.596;9.960;2022-12-24T10:20:38;13.15;;;8.70;;
14342;SDS011;7255;53.596;9.960;2022-12-24T10:23:10;15.35;;;9.27;;
14342;SDS011;7255;53.596;9.960;2022-12-24T10:25:43;14.32;;;9.40;;
14342;SDS011;7255;53.596;9.960;2022-12-24T10:28:14;11.30;;;9.02;;
14342;SDS011;7255;53.596;9.960;2022-12-24T10:30:43;13.05;;;9.35;;
14342;SDS011;7255;53.596;9.960;2022-12-24T10:33:15;14.93;;;9.57;;
14342;SDS011;7255;53.596;9.960;2022-12-24T10:35:55;12.27;;;10.17;;
14342;SDS011;7255;53.596;9.960;2022-12-24T10:38:23;13.00;;;9.55;;
14342;SDS011;7255;53.596;9.960;2022-12-24T10:40:49;13.75;;;10.73;;
14342;SDS011;7255;53.596;9.960;2022-12-24T10:43:20;13.50;;;10.38;;
14342;SDS011;7255;53.596;9.960;2022-12-24T10:45:49;13.13;;;10.35;;
14342;SDS011;7255;53.596;9.960;2022-12-24T10:48:20;14.95;;;10.48;;
14342;SDS011;7255;53.596;9.960;2022-12-24T10:50:51;12.25;;;10.20;;
14342;SDS011;7255;53.596;9.960;2022-12-24T10:53:22;15.65;;;11.23;;
14342;SDS011;7255;53.596;9.960;2022-12-24T10:55:59;17.75;;;10.50;;
14342;SDS011;7255;53.596;9.960;2022-12-24T10:58:27;14.20;;;10.00;;
14342;SDS011;7255;53.596;9.960;2022-12-24T11:00:53;12.70;;;10.82;;
14342;SDS011;7255;53.596;9.960;2022-12-24T11:03:22;14.90;;;11.27;;
14342;SDS011;7255;53.596;9.960;2022-12-24T11:06:00;15.40;;;11.23;;
14342;SDS011;7255;53.596;9.960;2022-12-24T11:08:29;15.98;;;11.35;;
14342;SDS011;7255;53.596;9.960;2022-12-24T11:10:57;15.98;;;11.43;;
14342;SDS011;7255;53.596;9.960;2022-12-24T11:13:25;17.52;;;13.05;;
14342;SDS011;7255;53.596;9.960;2022-12-24T11:16:01;16.45;;;11.70;;
14342;SDS011;7255;53.596;9.960;2022-12-24T11:18:32;17.65;;;12.15;;
14342;SDS011;7255;53.596;9.960;2022-12-24T11:21:01;16.42;;;12.32;;
14342;SDS011;7255;53.596;9.960;2022-12-24T11:23:29;18.25;;;12.50;;
14342;SDS011;7255;53.596;9.960;2022-12-24T11:25:56;20.65;;;12.88;;
14342;SDS011;7255;53.596;9.960;2022-12-24T11:28:24;21.55;;;13.18;;
14342;SDS011;7255;53.596;9.960;2022-12-24T11:30:56;17.35;;;12.23;;
14342;SDS011;7255;53.596;9.960;2022-12-24T11:33:25;19.98;;;12.05;;
14342;SDS011;7255;53.596;9.960;2022-12-24T11:35:54;20.67;;;11.82;;
14342;SDS011;7255;53.596;9.960;2022-12-24T11:38:26;18.25;;;11.85;;
14342;SDS011;7255;53.596;9.960;2022-12-24T11:41:01;15.35;;;11.15;;
14342;SDS011;7255;53.596;9.960;2022-12-24T11:43:37;17.35;;;11.45;;
14342;SDS011;7255;53.596;9.960;2022-12-24T11:46:16;16.52;;;11.70;;
14342;SDS011;7255;53.596;9.960;2022-12-24T11:49:12;17.45;;;11.15;;
14342;SDS011;7255;53.596;9.960;2022-12-24T11:51:45;18.52;;;11.80;;
14342;SDS011;7255;53.596;9.960;2022-12-24T11:54:28;16.35;;;11.30;;
14342;SDS011;7255;53.596;9.960;2022-12-24T11:56:57;17.77;;;11.60;;
14342;SDS011;7255;53.596;9.960;2022-12-24T11:59:27;17.98;;;11.80;;
14342;SDS011;7255;53.596;9.960;2022-12-24T12:01:59;15.57;;;11.10;;
14342;SDS011;7255;53.596;9.960;2022-12-24T12:04:35;16.95;;;10.93;;
14342;SDS011;7255;53.596;9.960;2022-12-24T12:07:05;19.83;;;11.55;;
14342;SDS011;7255;53.596;9.960;2022-12-24T12:09:39;17.90;;;12.63;;
14342;SDS011;7255;53.596;9.960;2022-12-24T12:12:11;16.70;;;13.43;;
14342;SDS011;7255;53.596;9.960;2022-12-24T12:14:41;18.37;;;12.15;;
14342;SDS011;7255;53.596;9.960;2022-12-24T12:17:13;17.23;;;12.57;;
14342;SDS011;7255;53.596;9.960;2022-12-24T12:19:51;18.73;;;12.23;;
14342;SDS011;7255;53.596;9.960;2022-12-24T12:22:25;18.37;;;12.23;;
14342;SDS011;7255;53.596;9.960;2022-12-24T12:24:56;15.77;;;12.07;;
14342;SDS011;7255;53.596;9.960;2022-12-24T12:27:26;18.15;;;11.88;;
14342;SDS011;7255;53.596;9.960;2022-12-24T12:29:56;19.73;;;12.55;;
14342;SDS011;7255;53.596;9.960;2022-12-24T12:32:27;15.60;;;12.02;;
14342;SDS011;7255;53.596;9.960;2022-12-24T12:35:12;17.45;;;12.07;;
14342;SDS011;7255;53.596;9.960;2022-12-24T12:37:51;21.50;;;12.10;;
14342;SDS011;7255;53.596;9.960;2022-12-24T12:40:21;22.30;;;12.20;;
14342;SDS011;7255;53.596;9.960;2022-12-24T12:42:58;20.10;;;13.15;;
14342;SDS011;7255;53.596;9.960;2022-12-24T12:45:36;23.23;;;12.73;;
14342;SDS011;7255;53.596;9.960;2022-12-24T12:48:14;19.00;;;11.35;;
14342;SDS011;7255;53.596;9.960;2022-12-24T12:50:51;21.00;;;12.82;;
14342;SDS011;7255;53.596;9.960;2022-12-24T12:53:27;20.95;;;12.68;;
14342;SDS011;7255;53.596;9.960;2022-12-24T12:56:03;21.85;;;12.55;;
14342;SDS011;7255;53.596;9.960;2022-12-24T12:58:38;26.17;;;12.18;;
14342;SDS011;7255;53.596;9.960;2022-12-24T13:01:10;20.12;;;12.80;;
14342;SDS011;7255;53.596;9.960;2022-12-24T13:09:54;20.95;;;12.70;;
14342;SDS011;7255;53.596;9.960;2022-12-24T13:12:43;21.35;;;13.05;;
14342;SDS011;7255;53.596;9.960;2022-12-24T13:15:28;20.23;;;13.68;;
14342;SDS011;7255;53.596;9.960;2022-12-24T13:18:18;26.55;;;13.85;;
14342;SDS011;7255;53.596;9.960;2022-12-24T13:21:11;23.33;;;12.32;;
14342;SDS011;7255;53.596;9.960;2022-12-24T13:23:41;24.90;;;13.20;;
14342;SDS011;7255;53.596;9.960;2022-12-24T13:26:10;25.30;;;12.98;;
14342;SDS011;7255;53.596;9.960;2022-12-24T13:28:38;27.83;;;13.20;;
14342;SDS011;7255;53.596;9.960;2022-12-24T13:31:22;23.27;;;13.48;;
14342;SDS011;7255;53.596;9.960;2022-12-24T13:33:54;29.37;;;13.38;;
14342;SDS011;7255;53.596;9.960;2022-12-24T13:36:22;25.85;;;12.80;;
14342;SDS011;7255;53.596;9.960;2022-12-24T13:38:49;28.48;;;11.12;;
14342;SDS011;7255;53.596;9.960;2022-12-24T13:44:24;25.08;;;11.30;;
14342;SDS011;7255;53.596;9.960;2022-12-24T13:47:00;23.08;;;10.77;;
14342;SDS011;7255;53.596;9.960;2022-12-24T13:49:46;33.80;;;10.85;;
14342;SDS011;7255;53.596;9.960;2022-12-24T13:52:20;25.73;;;10.75;;
14342;SDS011;7255;53.596;9.960;2022-12-24T13:54:58;26.30;;;10.73;;
14342;SDS011;7255;53.596;9.960;2022-12-24T13:57:30;27.37;;;10.15;;
14342;SDS011;7255;53.596;9.960;2022-12-24T14:00:03;25.17;;;9.00;;
14342;SDS011;7255;53.596;9.960;2022-12-24T14:02:34;26.92;;;9.18;;
14342;SDS011;7255;53.596;9.960;2022-12-24T14:05:05;28.30;;;8.15;;
14342;SDS011;7255;53.596;9.960;2022-12-24T14:07:43;29.80;;;8.93;;
14342;SDS011;7255;53.596;9.960;2022-12-24T14:10:18;30.98;;;9.73;;
14342;SDS011;7255;53.596;9.960;2022-12-24T14:12:47;30.08;;;8.68;;
14342;SDS011;7255;53.596;9.960;2022-12-24T14:18:32;29.77;;;9.68;;
14342;SDS011;7255;53.596;9.960;2022-12-24T14:21:02;26.85;;;8.85;;
14342;SDS011;7255;53.596;9.960;2022-12-24T14:23:32;24.33;;;8.65;;
14342;SDS011;7255;53.596;9.960;2022-12-24T14:26:08;26.35;;;8.02;;
14342;SDS011;7255;53.596;9.960;2022-12-24T14:28:40;21.60;;;8.30;;
14342;SDS011;7255;53.596;9.960;2022-12-24T14:31:12;24.42;;;7.87;;
14342;SDS011;7255;53.596;9.960;2022-12-24T14:33:42;25.60;;;8.25;;
14342;SDS011;7255;53.596;9.960;2022-12-24T14:36:09;29.10;;;8.52;;
14342;SDS011;7255;53.596;9.960;2022-12-24T14:38:38;29.00;;;8.80;;
14342;SDS011;7255;53.596;9.960;2022-12-24T14:41:07;23.42;;;7.53;;
14342;SDS011;7255;53.596;9.960;2022-12-24T14:43:47;27.70;;;8.18;;
14342;SDS011;7255;53.596;9.960;2022-12-24T14:46:21;33.38;;;9.07;;
14342;SDS011;7255;53.596;9.960;2022-12-24T14:48:53;31.73;;;9.32;;
14342;SDS011;7255;53.596;9.960;2022-12-24T14:51:25;29.92;;;9.50;;
14342;SDS011;7255;53.596;9.960;2022-12-24T14:54:01;28.50;;;10.68;;
14342;SDS011;7255;53.596;9.960;2022-12-24T14:57:05;26.42;;;8.48;;
14342;SDS011;7255;53.596;9.960;2022-12-24T14:59:39;24.87;;;8.27;;
14342;SDS011;7255;53.596;9.960;2022-12-24T15:02:19;25.37;;;8.98;;
14342;SDS011;7255;53.596;9.960;2022-12-24T15:05:05;30.75;;;8.25;;
14342;SDS011;7255;53.596;9.960;2022-12-24T15:07:34;23.83;;;7.90;;
14342;SDS011;7255;53.596;9.960;2022-12-24T15:10:20;28.30;;;9.00;;